Selected Arizona METAR Reports


Metar stations are listed by distance from this station - near to far. The 'official' reporting station for the Greater Phoenix area is KPHX - Phoenix/Sky Harbor.

KDVT - Phoenix/Deer Valley, Arizona, USA
Distance from station: NW 4mi, 7km
Updated: Thu 26 Apr 2018 0553 MST
Clear
Clear
 Wind from E
Wind: E 6 mph , 9 km/h
Temperature: 70°F , 21°C
Dew Point: 27°F , -3°C
Humidity: 20%
Barometer: 29.86 inHg , 1011.2 hPa
Clouds: Clear
Visibility: 10 miles , 16 km
2018/04/26 12:53 KDVT 261253Z AUTO 09005KT 10SM CLR 21/M03 A2986 RMK AO2 SLP088 T02061033
KSDL - Scottsdale, Arizona, USA
Distance from station: ESE 6mi, 9km
Updated: Thu 26 Apr 2018 0553 MST
Clear
Clear
 Wind from calm
Wind: Calm
Temperature: 68°F , 20°C
Dew Point: 36°F , 2°C
Humidity: 30%
Barometer: 29.88 inHg , 1011.9 hPa
Clouds: Clear
Visibility: 10 miles , 16 km
2018/04/26 12:53 KSDL 261253Z 00000KT 10SM CLR 20/02 A2988 RMK AO2 SLP093 T02000017
 
KPHX - Phoenix/Sky Harbor, Arizona, USA
Distance from station: S 15mi, 24km
Updated: Thu 26 Apr 2018 0551 MST
Mostly cloudy
Mostly cloudy
 Wind from E
Wind: E 9 mph , 15 km/h
Temperature: 72°F , 22°C
Dew Point: 34°F , 1°C
Humidity: 25%
Barometer: 29.84 inHg , 1010.5 hPa
Clouds: Mostly cloudy
Visibility: 10 miles , 16 km
Cloud details: Partly cloudy 25000 ft
Mostly cloudy 29000 ft
2018/04/26 12:51 KPHX 261251Z 08008KT 10SM SCT250 BKN290 22/01 A2984 RMK AO2 SLP086 T02170011
KGEU - Glendale, Arizona, USA
Distance from station: WSW 19mi, 30km
Updated: Thu 26 Apr 2018 0547 MST
Partly cloudy
Partly cloudy
 Wind from calm
Wind: Calm
Temperature: 72°F , 22°C
Dew Point: 30°F , -1°C
Humidity: 22%
Barometer: 29.86 inHg , 1011.2 hPa
Clouds: Partly cloudy
Visibility: 10 miles , 16 km
Cloud details: Partly cloudy 25000 ft
2018/04/26 12:47 KGEU 261247Z 00000KT 10SM SCT250 22/M01 A2986 RMK FIRST
 
KFFZ - Mesa/Falcon Field, Arizona, USA
Distance from station: SE 21mi, 33km
Updated: Thu 26 Apr 2018 0547 MST
Partly cloudy
Partly cloudy
 Wind from NNE
Wind: NNE 5 mph , 7 km/h
Temperature: 73°F , 23°C
Dew Point: 27°F , -3°C
Humidity: 17%
Barometer: 29.88 inHg , 1011.9 hPa
Clouds: Partly cloudy
Visibility: 40 miles , 64 km
Cloud details: Partly cloudy 25000 ft
2018/04/26 12:47 KFFZ 261247Z 03004KT 40SM SCT250 23/M03 A2988
KLUF - Luke AFB/Glendale, Arizona, USA
Distance from station: WSW 23mi, 36km
Updated: Thu 26 Apr 2018 0558 MST
Clear
Clear
 Wind from NNE
Wind: NNE 5 mph , 7 km/h
Temperature: 68°F , 20°C
Dew Point: 34°F , 1°C
Humidity: 28%
Barometer: 29.84 inHg , 1010.5 hPa
Clouds: Clear
Visibility: 10 miles , 16 km
2018/04/26 12:58 KLUF 261258Z AUTO 03004KT 10SM CLR 20/01 A2984 RMK AO2 SLP092 T01960011 $
 
KGYR - Goodyear Municipal, Arizona, USA
Distance from station: SW 26mi, 42km
Updated: Thu 26 Apr 2018 0547 MST
Partly cloudy
Partly cloudy
 Wind from SW
Wind: SW 8 mph , 13 km/h
Temperature: 72°F , 22°C
Dew Point: 34°F , 1°C
Humidity: 25%
Barometer: 29.85 inHg , 1010.8 hPa
Clouds: Partly cloudy
Visibility: 10 miles , 16 km
Cloud details: Partly cloudy 25000 ft
2018/04/26 12:47 KGYR 261247Z 23007KT 10SM SCT250 22/01 A2985 RMK FIRST
KIWA - Chandler/Mesa, Arizona, USA
Distance from station: SE 32mi, 51km
Updated: Thu 26 Apr 2018 0547 MST
Partly cloudy
Partly cloudy
 Wind from E
Wind: E 9 mph , 15 km/h
Temperature: 64°F , 18°C
Dew Point: 25°F , -4°C
Humidity: 22%
Barometer: 29.88 inHg , 1011.9 hPa
Clouds: Partly cloudy
Visibility: 20 miles , 32 km
Cloud details: Partly cloudy 25000 ft
2018/04/26 12:47 KIWA 261247Z 10008KT 20SM SCT250 18/M04 A2988
 
KBXK - Buckeye, Arizona, USA
Distance from station: WSW 42mi, 68km
Updated: Thu 26 Apr 2018 0555 MST
Clear
Clear
 Wind from N
Wind: N 7 mph , 11 km/h
Temperature: 64°F , 18°C
Dew Point: 21°F , -6°C
Humidity: 19%
Barometer: 29.86 inHg , 1011.2 hPa
Clouds: Clear
Visibility: 10 miles , 16 km
2018/04/26 12:55 KBXK 261255Z AUTO 01006KT 10SM CLR 18/M06 A2986 RMK AO1
KCGZ - Casa Grande, Arizona, USA
Distance from station: SSE 50mi, 81km
Updated: Thu 26 Apr 2018 0556 MST
Clear
Clear
 Wind from ENE
Wind: ENE 5 mph , 7 km/h
Temperature: 63°F , 17°C
Dew Point: 25°F , -4°C
Humidity: 24%
Barometer: 29.89 inHg , 1012.2 hPa
Clouds: Clear
Visibility: 10 miles , 16 km
2018/04/26 12:56 KCGZ 261256Z AUTO 07004KT 10SM CLR 17/M04 A2989 RMK AO2 SLP109 T01721039 $
 
KPAN - Payson, Arizona, USA
Distance from station: NE 57mi, 91km
Updated: Thu 26 Apr 2018 0555 MST
Clear
Clear
 Wind from calm
Wind: Calm
Temperature: 55°F , 13°C
Dew Point: 19°F , -7°C
Humidity: 24%
Barometer: 30.08 inHg , 1018.6 hPa
Clouds: Clear
Visibility: 10 miles , 16 km
2018/04/26 12:55 KPAN 261255Z AUTO 00000KT 10SM CLR 13/M07 A3008 RMK AO2
KGBN - Gila Bend (aaf), Arizona, USA
Distance from station: SW 68mi, 109km
Updated: Thu 20 Jul 2017 0757 MST
NOT Current
Partly cloudy
Partly cloudy
 Wind from calm
Wind: Calm
Temperature: 86°F , 30°C
Heat Index: 89°F , 32°C
Dew Point: 68°F , 20°C
Humidity: 55%
Barometer: 29.97 inHg , 1014.9 hPa
Clouds: Partly cloudy
Visibility: 10 miles , 16 km
Cloud details: Few Clouds 10000 ft
Partly cloudy 15000 ft
2017/07/20 14:57 KGBN 201457Z 00000KT 10SM FEW100 SCT150 30/20 A2997 RMK A02 NO SLP
 
KPRC - Prescott, Arizona, USA
Distance from station: NNW 73mi, 118km
Updated: Thu 26 Apr 2018 0553 MST
Clear
Clear
 Wind from S
Wind: S 6 mph , 9 km/h
Temperature: 50°F , 10°C
Wind Chill: 48°F , 9°C
Dew Point: 23°F , -5°C
Humidity: 35%
Barometer: 30.09 inHg , 1019 hPa
Clouds: Clear
Visibility: 10 miles , 16 km
2018/04/26 12:53 KPRC 261253Z 18005KT 10SM CLR 10/M05 A3009 RMK AO2 SLP119 T01001050
KSEZ - Sedona, Arizona, USA
Distance from station: N 84mi, 135km
Updated: Thu 26 Apr 2018 0555 MST
Clear
Clear
 Wind from NNE
Wind: NNE 13 mph , 20 km/h
Temperature: 59°F , 15°C
Dew Point: 21°F , -6°C
Humidity: 23%
Barometer: 30.08 inHg , 1018.6 hPa
Clouds: Clear
Visibility: 10 miles , 16 km
2018/04/26 12:55 KSEZ 261255Z AUTO 03011KT 10SM CLR 15/M06 A3008 RMK AO2
 
KFLG - Flagstaff, Arizona, USA
Distance from station: N 105mi, 168km
Updated: Thu 26 Apr 2018 0557 MST
Clear
Clear
 Wind from calm
Wind: Calm
Temperature: 32°F , 0°C
Dew Point: 18°F , -8°C
Humidity: 55%
Barometer: 30.20 inHg , 1022.7 hPa
Clouds: Clear
Visibility: 10 miles , 16 km
2018/04/26 12:57 KFLG 261257Z 00000KT 10SM CLR 00/M08 A3020 RMK AO2 SLP160 T00001078
KRYN - Tucson/Ryan Field, Arizona, USA
Distance from station: SSE 114mi, 184km
Updated: Thu 26 Apr 2018 0545 MST
Clear
Clear
 Wind from calm
Wind: Calm
Temperature: 57°F , 14°C
Dew Point: 27°F , -3°C
Humidity: 31%
Barometer: 29.97 inHg , 1014.9 hPa
Clouds: Clear
Visibility: 10 miles , 16 km
2018/04/26 12:45 KRYN 261245Z 00000KT 10SM CLR 14/M03 A2997
 
KCMR - Williams Clark, Arizona, USA
Distance from station: N 115mi, 185km
Updated: Thu 26 Apr 2018 0555 MST
Clear
Clear
 Wind from SSE
Wind: SSE 12 mph , 19 km/h
Temperature: 39°F , 4°C
Wind Chill: 32°F , 0°C
Dew Point: 18°F , -8°C
Humidity: 42%
Barometer: 30.16 inHg , 1021.3 hPa
Clouds: Clear
Visibility: 10 miles , 16 km
2018/04/26 12:55 KCMR 261255Z AUTO 16010KT 10SM CLR 04/M08 A3016 RMK AO2
KINW - Winslow, Arizona, USA
Distance from station: NE 121mi, 194km
Updated: Thu 26 Apr 2018 0556 MST
Clear
Clear
 Wind from calm
Wind: Calm
Temperature: 43°F , 6°C
Dew Point: 10°F , -12°C
Humidity: 26%
Barometer: 30.12 inHg , 1020 hPa
Clouds: Clear
Visibility: 10 miles , 16 km
2018/04/26 12:56 KINW 261256Z AUTO 00000KT 10SM CLR 06/M12 A3012 RMK AO2 SLP151 T00611117
 
KTUS - Tucson, Arizona, USA
Distance from station: SSE 121mi, 195km
Updated: Thu 26 Apr 2018 0553 MST
Clear
Clear
 Wind from SE
Wind: SE 7 mph , 11 km/h
Temperature: 63°F , 17°C
Dew Point: 30°F , -1°C
Humidity: 30%
Barometer: 29.97 inHg , 1014.9 hPa
Clouds: Clear
Visibility: 10 miles , 16 km
2018/04/26 12:53 KTUS 261253Z 14006KT 10SM CLR 17/M01 A2997 RMK AO2 SLP107 T01721011
KDMA - Davis AFB/Tucson, Arizona, USA
Distance from station: SE 122mi, 196km
Updated: Thu 26 Apr 2018 0558 MST
Clear
Clear
 Wind from SSE
Wind: SSE 6 mph , 9 km/h
Temperature: 61°F , 16°C
Dew Point: 27°F , -3°C
Humidity: 27%
Barometer: 29.96 inHg , 1014.6 hPa
Clouds: Clear
Visibility: 10 miles , 16 km
2018/04/26 12:58 KDMA 261258Z AUTO 16005KT 10SM CLR 16/M03 A2996 RMK AO2 SLP105 T01601030 $
 
KSOW - Show Low Municipal, Arizona, USA
Distance from station: ENE 123mi, 198km
Updated: Thu 26 Apr 2018 0555 MST
Clear
Clear
 Wind from calm
Wind: Calm
Temperature: 43°F , 6°C
Dew Point: 9°F , -13°C
Humidity: 24%
Barometer: 30.18 inHg , 1022 hPa
Clouds: Clear
Visibility: 10 miles , 16 km
2018/04/26 12:55 KSOW 261255Z AUTO 00000KT 10SM CLR 06/M13 A3018 RMK AO2
KSAD - Safford, Arizona, USA
Distance from station: ESE 148mi, 238km
Updated: Thu 26 Apr 2018 0551 MST
Clear
Clear
 Wind from NE
Wind: NE 5 mph , 7 km/h
Temperature: 54°F , 12°C
Dew Point: 16°F , -9°C
Humidity: 22%
Barometer: 29.97 inHg , 1014.9 hPa
Clouds: Clear
Visibility: 10 miles , 16 km
2018/04/26 12:51 KSAD 261251Z AUTO 05004KT 10SM CLR 12/M09 A2997 RMK AO2 SLP106 T01171094